Observations for Trim Patrick St
| Time | AQI | Temp °C | Hum % | Pres Pa | CO μg/m³ | H₂S μg/m³ | NO μg/m³ | NO₂ μg/m³ | O₃ μg/m³ | SO₂ μg/m³ | PM1 μg/m³ | PM2.5 μg/m³ | PM10 μg/m³ |
|---|---|---|---|---|---|---|---|---|---|---|---|---|---|
| Monday 3 August 2026 | |||||||||||||
| 09:11 | 2 | 22.6 | 64 | 87,010 | 0.09 | 0 | 2.9 | 12.94 | 39.59 | 3.76 | 4.57 | 9.95 | 10.94 |
| 09:09 | 2 | 22.5 | 65 | 90,698 | 0.14 | 0 | 2.96 | 14.81 | 39.1 | 4.62 | 6.29 | 10.56 | 11.61 |
| 09:08 | 2 | 22.4 | 64 | 92,464 | 0.1 | 0 | 3.33 | 13.85 | 38.47 | 4.15 | 5.43 | 10.64 | 11.71 |
| 09:05 | 2 | 22.2 | 66 | 97,752 | 0.09 | 0 | 2.99 | 9.81 | 44.87 | 2.48 | 5.43 | 9.06 | 9.97 |
| 09:04 | 2 | 22.2 | 66 | 102,401 | 0.12 | 0 | 3 | 9.09 | 40.65 | 3.12 | 4.57 | 9.74 | 10.72 |
| 09:03 | 2 | 22.1 | 66 | 105,654 | 0.11 | 0 | 2.67 | 12.37 | 42.56 | 3.56 | 6.29 | 10.5 | 11.55 |
| 09:02 | 2 | 22 | 66 | 109,214 | 0.12 | 0 | 2.82 | 11.45 | 37.7 | 2.85 | 8 | 12.72 | 13.99 |
| 09:01 | 2 | 21.9 | 67 | 113,373 | 0.12 | 0 | 2.77 | 13.69 | 42.51 | 3.15 | 6.29 | 11.9 | 13.09 |
| 09:00 | 2 | 21.9 | 66 | 2,001 | 0.11 | 0 | 3.15 | 13.13 | 40.89 | 3.55 | 5.43 | 9.81 | 10.79 |
| 08:59 | 2 | 21.8 | 66 | 4,533 | 0.11 | 0 | 3.16 | 12.14 | 36.21 | 1.77 | 5.43 | 10.52 | 11.57 |
| 08:58 | 2 | 21.7 | 67 | 10,331 | 0.12 | 0 | 3.25 | 12.42 | 39.31 | 2.62 | 7.14 | 10.46 | 11.5 |
| 08:57 | 2 | 21.7 | 67 | 16,854 | 0.14 | 0 | 3.36 | 12.09 | 37.8 | 2.61 | 6.29 | 10.42 | 11.46 |
| 08:56 | 2 | 21.6 | 67 | 23,689 | 0.14 | 0 | 3.54 | 12.88 | 37.97 | 2.23 | 5.43 | 9.69 | 10.66 |
| 08:55 | 2 | 21.6 | 68 | 28,395 | 0.14 | 0 | 3.23 | 19.95 | 40.24 | 2.41 | 6.29 | 11.12 | 12.23 |
| 08:54 | 2 | 21.5 | 67 | 31,314 | 0.14 | 0 | 3.2 | 13.09 | 39.28 | 2.89 | 5.43 | 10.46 | 11.51 |
| 08:53 | 2 | 21.4 | 66 | 32,493 | 0.15 | 0 | 3.17 | 10.34 | 38.91 | 2.43 | 5.43 | 9.02 | 9.92 |
| 08:52 | 2 | 21.4 | 67 | 37,327 | 0.16 | 0 | 3.14 | 13.3 | 36.01 | 2.46 | 5.43 | 11.16 | 12.28 |
| 08:51 | 2 | 21.4 | 67 | 38,460 | 0.17 | 0 | 2.79 | 14.61 | 36.6 | 2.86 | 5.43 | 9.71 | 10.68 |
| 08:50 | 2 | 21.3 | 67 | 38,460 | 0.16 | 0 | 3.11 | 13.02 | 35.48 | 2.86 | 3.71 | 8.99 | 9.88 |
| 08:49 | 2 | 21.2 | 68 | 38,460 | 0.18 | 0 | 2.79 | 12.88 | 40.59 | 2.09 | 4.57 | 9.66 | 10.63 |